Time;durP1;ratioP1;P1;durP2;ratioP2;P2;SDS_P1;SDS_P2;PMS_P1;PMS_P2;Temp;Humidity;BMP_temperature;BMP_pressure;BME280_temperature;BME280_humidity;BME280_pressure;Samples;Min_cycle;Max_cycle;Signal;HPM_P1;HPM_P2
2021/09/25 00:02:18;;;;;;;4.35;2.70;;;;;;;13.98;57.80;93054.66;2057840;69;20163;-74
2021/09/25 00:04:43;;;;;;;5.25;2.72;;;;;;;14.12;57.39;93042.63;2057471;69;20181;-73
2021/09/25 00:07:10;;;;;;;4.53;2.83;;;;;;;14.01;58.28;93051.91;2058020;69;20299;-74
2021/09/25 00:09:35;;;;;;;5.75;2.75;;;;;;;13.95;58.42;93057.97;2057761;69;20224;-73
2021/09/25 00:12:01;;;;;;;3.78;2.60;;;;;;;13.79;59.18;93055.03;2055682;69;20189;-73
2021/09/25 00:14:27;;;;;;;3.75;2.30;;;;;;;13.81;58.48;93060.78;2057433;69;20212;-73
2021/09/25 00:16:52;;;;;;;4.88;2.70;;;;;;;13.85;58.47;93058.16;2057187;69;20220;-73
2021/09/25 00:19:18;;;;;;;3.10;2.55;;;;;;;13.74;59.10;93061.78;2057549;69;20236;-73
2021/09/25 00:21:44;;;;;;;3.28;2.40;;;;;;;13.70;59.74;93059.50;2056812;69;20145;-73
2021/09/25 00:24:09;;;;;;;4.18;2.60;;;;;;;13.64;59.66;93056.31;2056969;69;20137;-73
2021/09/25 00:26:35;;;;;;;5.60;2.35;;;;;;;13.62;59.96;93055.47;2057630;69;20192;-73
2021/09/25 00:29:01;;;;;;;6.97;3.00;;;;;;;13.70;58.54;93051.00;2057791;69;20152;-73
2021/09/25 00:31:26;;;;;;;5.50;2.53;;;;;;;13.76;58.53;93044.94;2057499;69;20204;-73
2021/09/25 00:33:52;;;;;;;4.25;2.75;;;;;;;13.69;58.82;93048.78;2057633;69;20613;-73
2021/09/25 00:36:27;;;;;;;4.68;2.30;;;;;;;13.53;59.99;93050.72;2057594;69;20153;-73
2021/09/25 00:38:53;;;;;;;3.92;2.50;;;;;;;13.57;59.28;93056.63;2057094;69;20241;-73
2021/09/25 00:41:21;;;;;;;5.00;2.72;;;;;;;13.53;59.24;93057.13;2057412;69;20130;-73
2021/09/25 00:43:48;;;;;;;4.47;2.58;;;;;;;13.64;58.72;93064.81;2057520;69;20229;-74
2021/09/25 00:46:14;;;;;;;8.93;2.60;;;;;;;13.50;59.06;93063.28;2057434;69;20170;-74
2021/09/25 00:48:41;;;;;;;4.10;2.78;;;;;;;13.46;60.33;93072.28;2057587;69;20173;-74
2021/09/25 00:51:07;;;;;;;5.22;2.83;;;;;;;13.30;60.54;93074.94;2057652;69;20161;-73
2021/09/25 00:53:32;;;;;;;3.95;2.53;;;;;;;13.28;60.09;93074.06;2057721;69;20146;-73
2021/09/25 00:56:00;;;;;;;4.70;2.67;;;;;;;13.01;61.65;93068.97;2057850;69;20514;-74
2021/09/25 00:58:26;;;;;;;4.25;2.67;;;;;;;13.34;59.58;93074.44;2057715;69;20126;-73
2021/09/25 01:00:51;;;;;;;4.93;2.70;;;;;;;13.23;59.71;93068.19;2057821;69;20172;-74
2021/09/25 01:03:17;;;;;;;5.07;2.92;;;;;;;13.16;60.81;93074.09;2057843;69;20142;-74
2021/09/25 01:05:45;;;;;;;4.00;2.72;;;;;;;13.23;60.13;93068.19;2057871;69;20208;-74
2021/09/25 01:08:12;;;;;;;4.75;2.72;;;;;;;13.10;60.65;93070.91;2057586;69;20164;-74
2021/09/25 01:10:38;;;;;;;4.32;2.67;;;;;;;13.11;60.24;93069.56;2057883;69;20598;-74
2021/09/25 01:13:04;;;;;;;7.13;3.05;;;;;;;12.91;61.42;93066.31;2058415;69;20153;-74
2021/09/25 01:15:29;;;;;;;3.92;2.60;;;;;;;13.11;60.07;93061.84;2057862;69;20137;-75
2021/09/25 01:17:55;;;;;;;3.85;2.40;;;;;;;12.92;61.18;93050.81;2058464;69;20233;-75
2021/09/25 01:20:21;;;;;;;3.67;2.60;;;;;;;13.07;60.42;93058.75;2058361;69;20146;-75
2021/09/25 01:22:46;;;;;;;3.65;2.72;;;;;;;12.86;61.61;93056.13;2058238;69;20216;-75
2021/09/25 01:25:12;;;;;;;3.17;2.40;;;;;;;12.82;61.53;93064.34;2058316;69;20604;-75
2021/09/25 01:27:38;;;;;;;3.97;2.60;;;;;;;13.17;59.07;93058.59;2058412;69;20138;-75
2021/09/25 01:30:07;;;;;;;5.07;2.60;;;;;;;12.98;60.89;93056.84;2058431;69;20241;-74
2021/09/25 01:32:33;;;;;;;5.63;2.15;;;;;;;13.00;58.84;93050.56;2058284;69;20669;-75
2021/09/25 01:35:00;;;;;;;5.97;2.70;;;;;;;12.86;60.15;93050.47;2057748;69;20233;-75
2021/09/25 01:37:25;;;;;;;3.85;2.67;;;;;;;12.86;60.07;93044.81;2058139;69;20518;-75
2021/09/25 01:39:51;;;;;;;4.63;2.70;;;;;;;12.79;61.21;93043.75;2058465;69;20173;-75
2021/09/25 01:42:16;;;;;;;4.60;2.13;;;;;;;12.86;59.59;93053.28;2058276;69;20137;-75
2021/09/25 01:44:42;;;;;;;3.97;2.50;;;;;;;12.89;60.46;93054.91;2058324;69;20606;-74
2021/09/25 01:47:08;;;;;;;3.88;2.40;;;;;;;12.76;60.82;93064.00;2058294;69;20624;-75
2021/09/25 01:49:33;;;;;;;6.28;2.80;;;;;;;12.63;61.48;93077.41;2058433;69;20639;-75
2021/09/25 01:51:59;;;;;;;5.03;2.35;;;;;;;12.72;60.88;93070.16;2058110;69;20625;-75
2021/09/25 01:54:24;;;;;;;4.45;2.40;;;;;;;12.57;61.51;93077.06;2058274;69;20205;-75
2021/09/25 01:56:50;;;;;;;4.10;2.60;;;;;;;12.60;60.70;93075.84;2057665;69;20243;-75
2021/09/25 01:59:16;;;;;;;3.65;2.40;;;;;;;12.59;60.54;93074.34;2058350;69;20524;-73
2021/09/25 02:01:42;;;;;;;6.72;2.50;;;;;;;12.60;60.95;93069.44;2058256;69;20164;-76
2021/09/25 02:04:07;;;;;;;6.55;2.22;;;;;;;12.61;60.61;93068.84;2058289;69;20241;-75
2021/09/25 02:06:33;;;;;;;3.03;2.50;;;;;;;12.57;61.66;93067.84;2058155;69;20665;-76
2021/09/25 02:08:59;;;;;;;4.95;2.20;;;;;;;12.67;59.66;93063.53;2058304;69;20149;-73
2021/09/25 02:11:25;;;;;;;3.03;2.20;;;;;;;12.55;61.15;93068.44;2058249;69;20146;-73
2021/09/25 02:13:51;;;;;;;4.18;2.40;;;;;;;12.82;59.21;93061.53;2058251;69;20173;-73
2021/09/25 02:16:17;;;;;;;3.53;2.30;;;;;;;12.65;59.56;93059.88;2058222;69;20146;-72
2021/09/25 02:18:43;;;;;;;4.10;2.40;;;;;;;12.58;60.12;93072.88;2058202;69;20612;-73
2021/09/25 02:21:09;;;;;;;3.28;2.08;;;;;;;12.67;60.97;93059.97;2058192;69;20274;-72
2021/09/25 02:23:35;;;;;;;6.90;2.45;;;;;;;12.48;61.77;93077.19;2057561;69;20517;-74
2021/09/25 02:26:03;;;;;;;7.90;2.70;;;;;;;12.29;61.95;93087.38;2058195;69;20161;-74
2021/09/25 02:28:29;;;;;;;6.88;2.60;;;;;;;12.28;61.68;93085.16;2058229;69;20204;-74
2021/09/25 02:30:55;;;;;;;4.10;2.42;;;;;;;12.34;62.38;93085.56;2058186;69;20240;-74
2021/09/25 02:33:22;;;;;;;3.53;2.45;;;;;;;12.43;60.12;93079.03;2058140;69;20175;-74
2021/09/25 02:35:49;;;;;;;3.30;2.33;;;;;;;12.51;59.00;93071.06;2058232;69;20146;-74
2021/09/25 02:38:16;;;;;;;3.90;2.45;;;;;;;12.43;61.27;93079.78;2057487;69;20538;-74
2021/09/25 02:40:41;;;;;;;3.65;2.20;;;;;;;12.40;61.54;93077.44;2058298;69;20157;-73
2021/09/25 02:43:07;;;;;;;4.75;2.88;;;;;;;12.54;58.30;93078.28;2058175;69;20140;-73
2021/09/25 02:45:34;;;;;;;2.22;1.92;;;;;;;12.88;57.30;93085.25;2058347;69;20252;-73
2021/09/25 02:48:00;;;;;;;5.72;1.90;;;;;;;13.00;56.57;93079.53;2058198;69;20181;-74
2021/09/25 02:50:26;;;;;;;2.78;2.10;;;;;;;12.71;58.07;93075.06;2058189;69;20138;-74
2021/09/25 02:52:52;;;;;;;4.93;2.55;;;;;;;12.67;59.98;93071.28;2058081;69;20253;-73
2021/09/25 02:55:17;;;;;;;3.60;2.22;;;;;;;12.64;59.65;93075.31;2058185;69;20134;-73
2021/09/25 02:57:44;;;;;;;3.42;2.40;;;;;;;12.56;59.89;93069.94;2058166;69;20152;-73
2021/09/25 03:00:14;;;;;;;5.65;2.60;;;;;;;12.43;60.35;93073.41;2058125;69;20174;-74
2021/09/25 03:02:41;;;;;;;5.53;2.53;;;;;;;12.39;60.06;93079.53;2058281;69;20220;-73
2021/09/25 03:05:07;;;;;;;4.13;2.38;;;;;;;12.45;58.79;93076.31;2058257;69;20150;-74
2021/09/25 03:07:33;;;;;;;4.47;1.67;;;;;;;12.72;58.39;93061.69;2058227;69;20169;-74
2021/09/25 03:09:59;;;;;;;3.17;2.22;;;;;;;12.72;58.99;93067.34;2058111;69;20141;-74
2021/09/25 03:12:24;;;;;;;4.18;2.13;;;;;;;12.51;59.55;93079.53;2058254;69;20152;-73
2021/09/25 03:14:50;;;;;;;3.95;2.13;;;;;;;12.44;59.75;93086.16;2058130;69;20154;-74
2021/09/25 03:17:16;;;;;;;5.03;2.35;;;;;;;12.48;58.99;93082.84;2057552;69;20169;-73
2021/09/25 03:19:42;;;;;;;3.88;2.10;;;;;;;12.55;57.79;93079.75;2057628;69;20178;-74
2021/09/25 03:22:08;;;;;;;2.55;2.05;;;;;;;12.60;58.88;93087.13;2057470;69;20145;-73
2021/09/25 03:24:34;;;;;;;3.35;1.85;;;;;;;12.66;58.16;93089.56;2058128;69;20529;-74
2021/09/25 03:27:00;;;;;;;3.25;2.08;;;;;;;12.30;60.79;93091.69;2058098;69;20588;-73
2021/09/25 03:29:25;;;;;;;4.18;2.22;;;;;;;12.35;60.19;93090.56;2058108;69;20137;-74
2021/09/25 03:31:51;;;;;;;4.72;2.10;;;;;;;12.33;60.21;93093.28;2058103;69;20148;-74
2021/09/25 03:34:17;;;;;;;3.08;2.17;;;;;;;12.44;59.30;93091.81;2057919;69;20180;-74
2021/09/25 03:36:43;;;;;;;7.60;3.87;;;;;;;12.25;60.54;93087.16;2057986;69;20521;-74
2021/09/25 03:39:09;;;;;;;4.93;2.70;;;;;;;12.36;60.22;93088.47;2058202;69;20636;-74
2021/09/25 03:41:35;;;;;;;5.05;2.67;;;;;;;12.50;57.91;93085.78;2058094;69;20526;-74
2021/09/25 03:44:01;;;;;;;4.60;2.45;;;;;;;12.35;60.53;93084.94;2058188;69;20142;-73
2021/09/25 03:46:27;;;;;;;3.45;2.22;;;;;;;12.36;60.25;93083.56;2058037;69;20154;-74
2021/09/25 03:48:53;;;;;;;4.30;2.30;;;;;;;12.21;60.05;93081.25;2058269;69;20513;-73
2021/09/25 03:51:18;;;;;;;6.55;2.50;;;;;;;12.21;59.94;93087.63;2058083;69;20164;-74
2021/09/25 03:53:44;;;;;;;3.95;2.15;;;;;;;12.35;59.72;93078.53;2058071;69;20233;-74
2021/09/25 03:56:10;;;;;;;3.40;2.00;;;;;;;12.21;60.00;93090.44;2058049;69;20240;-74
2021/09/25 03:58:39;;;;;;;3.53;2.40;;;;;;;12.08;60.75;93093.88;2058015;69;20150;-74
2021/09/25 04:01:06;;;;;;;4.10;2.28;;;;;;;12.11;60.70;93092.66;2058128;69;20142;-73
2021/09/25 04:03:32;;;;;;;3.05;2.30;;;;;;;12.15;59.10;93089.34;2058135;69;20245;-74
2021/09/25 04:05:58;;;;;;;3.03;1.85;;;;;;;12.32;57.09;93077.69;2058189;69;20232;-74
2021/09/25 04:08:25;;;;;;;3.72;2.35;;;;;;;12.06;59.34;93084.56;2057905;69;20150;-74
2021/09/25 04:10:51;;;;;;;2.60;2.10;;;;;;;12.19;59.33;93084.69;2058018;69;20491;-74
2021/09/25 04:13:16;;;;;;;2.95;2.00;;;;;;;12.26;58.61;93077.31;2058119;69;20601;-74
2021/09/25 04:15:42;;;;;;;3.05;1.90;;;;;;;12.39;57.72;93078.78;2058109;69;20219;-74
2021/09/25 04:18:12;;;;;;;7.32;3.20;;;;;;;12.14;59.41;93082.22;2058075;69;20162;-74
2021/09/25 04:20:38;;;;;;;5.20;3.22;;;;;;;11.95;60.55;93089.56;2058031;69;20167;-74
2021/09/25 04:23:04;;;;;;;6.22;2.70;;;;;;;11.71;61.70;93088.75;2057991;69;20232;-74
2021/09/25 04:25:30;;;;;;;6.50;3.00;;;;;;;11.90;61.09;93087.09;2057498;69;20229;-74
2021/09/25 04:28:05;;;;;;;4.00;2.38;;;;;;;12.12;59.04;93084.94;2058130;69;20142;-74
2021/09/25 04:30:35;;;;;;;9.13;3.00;;;;;;;11.93;60.40;93085.91;2057972;69;20153;-74
2021/09/25 04:33:01;;;;;;;4.85;2.90;;;;;;;11.98;60.28;93078.41;2057920;69;20605;-74
2021/09/25 04:35:26;;;;;;;3.63;2.60;;;;;;;11.92;60.32;93090.81;2057969;69;20152;-74
2021/09/25 04:37:52;;;;;;;7.15;2.50;;;;;;;11.80;60.54;93086.47;2057871;69;20272;-74
2021/09/25 04:40:18;;;;;;;4.90;2.40;;;;;;;11.85;60.53;93091.03;2057901;69;20150;-75
2021/09/25 04:42:43;;;;;;;3.55;2.60;;;;;;;11.78;61.22;93104.00;2057973;69;20154;-74
2021/09/25 04:45:13;;;;;;;3.25;2.15;;;;;;;11.75;60.49;93098.84;2057702;69;20674;-75
2021/09/25 04:47:40;;;;;;;7.63;2.50;;;;;;;11.93;59.46;93097.19;2058032;69;20161;-74
2021/09/25 04:50:07;;;;;;;3.90;2.20;;;;;;;11.79;61.19;93085.72;2057900;69;20146;-74
2021/09/25 04:52:33;;;;;;;4.03;2.25;;;;;;;11.75;60.89;93085.47;2057837;69;20266;-74
2021/09/25 04:54:59;;;;;;;4.88;2.55;;;;;;;11.58;61.67;93080.88;2058028;69;20624;-74
2021/09/25 04:57:25;;;;;;;4.93;2.60;;;;;;;11.64;61.25;93080.56;2057956;69;20152;-74
2021/09/25 04:59:51;;;;;;;4.65;2.65;;;;;;;11.64;60.63;93084.09;2057885;69;20134;-74
2021/09/25 05:02:16;;;;;;;4.90;2.80;;;;;;;11.70;60.72;93092.19;2057874;69;20145;-75
2021/09/25 05:04:42;;;;;;;5.13;2.22;;;;;;;11.59;60.32;93092.91;2057844;69;20193;-74
2021/09/25 05:07:07;;;;;;;5.43;2.50;;;;;;;11.57;60.48;93099.16;2057754;69;20220;-74
2021/09/25 05:09:33;;;;;;;4.30;2.65;;;;;;;11.53;60.52;93104.53;2057789;69;20153;-74
2021/09/25 05:11:59;;;;;;;3.75;2.33;;;;;;;11.49;61.02;93115.53;2057846;69;20529;-74
2021/09/25 05:14:24;;;;;;;4.03;2.63;;;;;;;11.55;60.49;93109.56;2057795;69;20173;-73
2021/09/25 05:16:50;;;;;;;4.85;2.88;;;;;;;11.41;61.18;93110.16;2057784;69;20577;-74
2021/09/25 05:19:16;;;;;;;4.45;2.67;;;;;;;11.41;62.13;93112.22;2057990;69;20137;-74
2021/09/25 05:21:41;;;;;;;3.72;2.50;;;;;;;11.31;62.56;93120.00;2057775;69;20126;-73
2021/09/25 05:24:07;;;;;;;4.15;2.60;;;;;;;11.44;61.23;93125.09;2057807;69;20249;-73
2021/09/25 05:26:35;;;;;;;2.88;2.20;;;;;;;11.40;61.69;93122.75;2057827;69;20244;-74
2021/09/25 05:29:02;;;;;;;5.07;2.28;;;;;;;11.32;61.78;93116.59;2057802;69;20145;-74
2021/09/25 05:31:30;;;;;;;4.47;2.53;;;;;;;11.56;60.05;93122.31;2057286;69;20141;-74
2021/09/25 05:33:57;;;;;;;3.22;2.40;;;;;;;11.54;59.29;93120.09;2057762;69;20238;-74
2021/09/25 05:36:23;;;;;;;6.07;2.70;;;;;;;11.41;61.90;93121.41;2057767;69;20235;-74
2021/09/25 05:38:49;;;;;;;4.70;2.53;;;;;;;11.29;62.17;93119.88;2057615;69;20150;-74
2021/09/25 05:41:14;;;;;;;4.13;2.50;;;;;;;11.37;62.44;93123.97;2057884;69;20145;-74
2021/09/25 05:43:40;;;;;;;4.97;3.30;;;;;;;11.33;61.84;93120.16;2057913;69;20233;-74
2021/09/25 05:46:05;;;;;;;4.30;3.00;;;;;;;11.43;61.39;93126.44;2057774;69;20537;-75
2021/09/25 05:48:33;;;;;;;9.82;4.18;;;;;;;11.35;62.41;93123.09;2057724;69;20154;-74
2021/09/25 05:50:59;;;;;;;10.43;5.10;;;;;;;11.41;62.34;93132.69;2057740;69;20149;-75
2021/09/25 05:53:25;;;;;;;9.00;4.13;;;;;;;11.32;62.62;93132.78;2057624;69;20216;-75
2021/09/25 05:55:51;;;;;;;7.40;4.47;;;;;;;11.28;63.13;93133.25;2057912;69;20158;-75
2021/09/25 05:58:16;;;;;;;7.90;4.20;;;;;;;11.28;63.19;93132.50;2058213;69;20156;-75
2021/09/25 06:00:42;;;;;;;4.60;2.92;;;;;;;11.38;63.04;93131.09;2058276;69;20174;-75
2021/09/25 06:03:08;;;;;;;6.25;4.25;;;;;;;11.05;64.04;93136.69;2058293;69;20153;-74
2021/09/25 06:05:33;;;;;;;7.80;4.40;;;;;;;11.27;61.21;93137.41;2058231;69;20149;-75
2021/09/25 06:08:01;;;;;;;7.35;4.68;;;;;;;11.22;62.66;93135.66;2058136;69;20145;-75
2021/09/25 06:10:27;;;;;;;12.25;4.70;;;;;;;11.48;58.58;93135.91;2058183;69;20148;-75
2021/09/25 06:12:52;;;;;;;7.22;5.20;;;;;;;11.39;61.73;93126.91;2058239;69;20173;-75
2021/09/25 06:15:18;;;;;;;7.45;5.13;;;;;;;11.21;62.61;93134.19;2058228;69;20154;-75
2021/09/25 06:17:44;;;;;;;6.68;4.70;;;;;;;11.19;63.32;93126.34;2058192;69;20155;-75
2021/09/25 06:20:10;;;;;;;6.60;5.00;;;;;;;11.34;61.78;93122.38;2058223;69;20307;-75
2021/09/25 06:22:36;;;;;;;7.40;4.38;;;;;;;11.53;59.94;93126.34;2058145;69;20175;-75
2021/09/25 06:25:03;;;;;;;11.13;6.47;;;;;;;11.30;63.13;93127.00;2058329;69;20218;-74
2021/09/25 06:27:29;;;;;;;11.15;7.45;;;;;;;11.24;63.36;93132.97;2058187;69;20142;-75
2021/09/25 06:29:54;;;;;;;11.52;6.25;;;;;;;11.16;63.40;93135.28;2058313;69;20248;-74
2021/09/25 06:32:20;;;;;;;7.60;4.95;;;;;;;11.30;62.74;93130.56;2058165;69;20211;-75
2021/09/25 06:34:46;;;;;;;7.15;4.47;;;;;;;11.44;61.18;93128.66;2058175;69;20181;-74
2021/09/25 06:37:11;;;;;;;8.27;5.15;;;;;;;11.33;63.30;93125.78;2058144;69;20169;-74
2021/09/25 06:39:37;;;;;;;8.10;5.07;;;;;;;11.38;62.48;93122.63;2058160;69;20154;-74
2021/09/25 06:42:03;;;;;;;7.25;4.80;;;;;;;11.48;61.31;93125.34;2058202;69;20164;-75
2021/09/25 06:44:28;;;;;;;9.07;4.78;;;;;;;11.20;63.81;93127.09;2058175;69;20142;-74
2021/09/25 06:46:54;;;;;;;10.55;5.30;;;;;;;10.99;64.58;93127.09;2058192;69;20142;-75
2021/09/25 06:49:21;;;;;;;7.10;4.40;;;;;;;11.29;63.26;93123.44;2058152;69;20181;-74
2021/09/25 06:51:47;;;;;;;5.15;3.70;;;;;;;11.29;64.23;93128.34;2058102;69;20177;-74
2021/09/25 06:54:13;;;;;;;5.97;3.95;;;;;;;11.36;61.90;93139.41;2058224;69;20169;-75
2021/09/25 06:56:38;;;;;;;6.97;3.97;;;;;;;11.34;62.59;93142.09;2058148;69;20558;-75
2021/09/25 06:59:04;;;;;;;9.10;3.40;;;;;;;11.44;61.70;93142.75;2058134;69;20156;-75
2021/09/25 07:01:30;;;;;;;8.27;4.68;;;;;;;11.47;61.55;93146.44;2058176;69;20235;-75
2021/09/25 07:03:55;;;;;;;6.60;4.30;;;;;;;11.50;60.89;93141.66;2058155;69;20581;-75
2021/09/25 07:06:21;;;;;;;10.15;4.57;;;;;;;11.53;61.74;93135.53;2058140;69;20145;-74
2021/09/25 07:08:46;;;;;;;6.07;4.10;;;;;;;11.43;62.79;93137.72;2057743;69;20176;-76
2021/09/25 07:11:12;;;;;;;7.47;4.15;;;;;;;11.45;62.87;93137.84;2058078;69;20185;-75
2021/09/25 07:13:37;;;;;;;9.32;4.65;;;;;;;11.51;62.38;93137.50;2058144;69;20275;-75
2021/09/25 07:16:03;;;;;;;11.18;4.43;;;;;;;11.44;63.03;93137.09;2057592;69;20134;-75
2021/09/25 07:18:29;;;;;;;7.43;4.00;;;;;;;11.41;63.14;93129.16;2058483;69;20157;-75
2021/09/25 07:20:55;;;;;;;8.43;3.85;;;;;;;11.54;62.07;93131.38;2058368;69;20146;-76
2021/09/25 07:23:20;;;;;;;9.88;3.97;;;;;;;11.57;61.94;93120.97;2057974;69;20157;-76
2021/09/25 07:25:46;;;;;;;8.35;3.92;;;;;;;11.71;60.97;93128.25;2058154;69;20149;-75
2021/09/25 07:28:12;;;;;;;10.65;3.80;;;;;;;11.73;60.74;93132.53;2058630;69;20169;-75
2021/09/25 07:30:38;;;;;;;6.75;4.10;;;;;;;12.17;61.73;93137.44;2058587;69;20138;-76
2021/09/25 07:33:05;;;;;;;8.32;4.22;;;;;;;12.67;60.67;93136.25;2058046;69;20265;-75
2021/09/25 07:35:34;;;;;;;12.80;4.93;;;;;;;12.88;61.73;93138.94;2058188;69;20149;-75
2021/09/25 07:38:02;;;;;;;9.00;4.18;;;;;;;12.98;60.42;93145.16;2057920;69;20145;-76
2021/09/25 07:40:28;;;;;;;8.25;4.13;;;;;;;13.20;59.25;93142.91;2058202;69;20172;-75
2021/09/25 07:42:54;;;;;;;7.82;3.90;;;;;;;13.94;57.78;93145.00;2058105;69;20274;-75
2021/09/25 07:45:19;;;;;;;8.02;3.50;;;;;;;14.60;56.22;93151.38;2058086;69;20237;-75
2021/09/25 07:47:45;;;;;;;6.00;3.05;;;;;;;14.92;55.79;93138.88;2058054;69;20498;-75
2021/09/25 07:50:11;;;;;;;10.55;3.50;;;;;;;15.40;55.05;93145.59;2057964;69;20608;-75
2021/09/25 07:52:39;;;;;;;6.55;2.97;;;;;;;15.37;53.20;93146.84;2057929;69;20156;-76
2021/09/25 07:55:06;;;;;;;5.47;3.03;;;;;;;15.38;52.77;93145.47;2057994;69;20155;-76
2021/09/25 07:57:32;;;;;;;4.15;2.72;;;;;;;16.07;52.83;93139.59;2058072;69;20138;-76
2021/09/25 07:59:57;;;;;;;4.78;2.90;;;;;;;16.63;49.84;93135.09;2058110;69;20126;-76
2021/09/25 08:02:23;;;;;;;5.00;2.70;;;;;;;16.84;50.50;93138.88;2058047;69;20144;-74
2021/09/25 08:04:48;;;;;;;5.45;2.90;;;;;;;16.90;49.56;93147.66;2057980;69;20193;-74
2021/09/25 08:07:14;;;;;;;3.75;2.80;;;;;;;16.77;48.80;93143.56;2057919;69;20149;-74
2021/09/25 08:09:39;;;;;;;5.22;3.30;;;;;;;17.75;49.00;93150.63;2058150;69;20177;-74
2021/09/25 08:12:05;;;;;;;4.40;2.95;;;;;;;19.59;45.78;93144.03;2057987;69;20198;-74
2021/09/25 08:14:31;;;;;;;7.00;3.30;;;;;;;19.28;45.21;93151.53;2057965;69;20153;-73
2021/09/25 08:16:56;;;;;;;5.40;3.67;;;;;;;19.22;47.08;93151.31;2057888;69;20141;-74
2021/09/25 08:19:22;;;;;;;5.90;2.53;;;;;;;18.91;45.43;93148.75;2058074;69;20169;-73
2021/09/25 08:21:48;;;;;;;4.60;2.83;;;;;;;18.79;44.51;93149.03;2057803;69;20192;-72
2021/09/25 08:24:13;;;;;;;4.65;2.60;;;;;;;19.04;45.24;93151.38;2057946;69;20176;-73
2021/09/25 08:26:39;;;;;;;3.45;1.98;;;;;;;19.43;42.99;93141.38;2058004;69;20137;-73
2021/09/25 08:29:06;;;;;;;4.28;2.00;;;;;;;19.49;42.21;93135.84;2057906;69;20150;-73
2021/09/25 08:31:32;;;;;;;3.10;2.20;;;;;;;20.15;42.56;93135.91;2057915;69;20145;-72
2021/09/25 08:33:58;;;;;;;3.90;2.58;;;;;;;19.98;44.57;93134.69;2057897;69;20176;-72
2021/09/25 08:36:23;;;;;;;5.97;2.40;;;;;;;20.93;41.50;93138.31;2057907;69;20241;-73
2021/09/25 08:38:49;;;;;;;3.20;2.20;;;;;;;20.50;41.23;93137.03;2057871;69;20176;-73
2021/09/25 08:41:15;;;;;;;5.07;2.47;;;;;;;20.83;40.81;93132.28;2057825;69;20175;-73
2021/09/25 08:43:41;;;;;;;4.28;2.42;;;;;;;20.78;40.16;93134.31;2058015;69;20169;-74
2021/09/25 08:46:08;;;;;;;2.50;2.10;;;;;;;21.21;40.78;93132.66;2057959;69;20237;-72
2021/09/25 08:48:35;;;;;;;4.22;2.17;;;;;;;20.64;40.67;93134.63;2058111;69;20230;-73
2021/09/25 08:51:01;;;;;;;4.00;2.20;;;;;;;21.07;39.42;93138.72;2057949;69;20173;-72
2021/09/25 08:53:27;;;;;;;4.28;2.10;;;;;;;21.79;39.57;93136.44;2057764;69;20322;-74
2021/09/25 08:55:52;;;;;;;8.45;2.50;;;;;;;20.97;39.20;93135.56;2057928;69;20617;-72
2021/09/25 08:58:18;;;;;;;2.60;1.90;;;;;;;21.90;36.94;93137.44;2057822;69;20160;-73
2021/09/25 09:00:49;;;;;;;3.08;1.52;;;;;;;21.81;35.48;93124.31;2057939;69;20545;-73
2021/09/25 09:03:18;;;;;;;1.90;1.52;;;;;;;22.73;36.33;93129.41;2057836;69;20152;-74
2021/09/25 09:05:43;;;;;;;1.73;1.60;;;;;;;22.95;34.49;93124.16;2057841;69;20177;-73
2021/09/25 09:08:09;;;;;;;6.30;3.60;;;;;;;22.51;32.92;93121.72;2057764;69;20237;-76
2021/09/25 09:10:36;;;;;;;2.22;1.75;;;;;;;23.07;33.74;93112.94;2058003;69;20185;-75
2021/09/25 09:13:03;;;;;;;4.43;1.60;;;;;;;23.36;32.63;93119.25;2057856;69;20177;-75
2021/09/25 09:15:39;;;;;;;2.22;1.85;;;;;;;24.22;33.77;93112.91;2057956;69;20146;-74
2021/09/25 09:18:16;;;;;;;2.97;1.85;;;;;;;24.28;32.72;93115.16;2057809;69;20602;-74
2021/09/25 09:21:13;;;;;;;1.92;1.50;;;;;;;24.55;31.27;93111.31;2057998;69;20146;-75
2021/09/25 09:23:51;;;;;;;8.93;1.80;;;;;;;23.48;31.90;93116.63;2057724;69;20209;-74
2021/09/25 09:26:20;;;;;;;2.80;1.80;;;;;;;23.72;32.59;93113.50;2057889;69;20200;-75
2021/09/25 09:28:48;;;;;;;2.53;1.60;;;;;;;24.45;33.19;93105.41;2057804;69;20160;-75
2021/09/25 09:31:15;;;;;;;1.75;1.58;;;;;;;25.75;31.92;93105.63;2057976;69;20592;-75
2021/09/25 09:33:44;;;;;;;2.08;1.67;;;;;;;27.04;28.84;93098.81;2058309;69;20164;-75
2021/09/25 09:36:15;;;;;;;2.88;1.50;;;;;;;25.28;28.50;93090.72;2058327;69;20628;-75
2021/09/25 09:38:50;;;;;;;2.33;1.90;;;;;;;24.88;31.23;93085.13;2058258;69;20157;-76
2021/09/25 09:41:20;;;;;;;1.67;1.50;;;;;;;26.10;30.77;93089.44;2058350;69;20324;-73
2021/09/25 09:43:46;;;;;;;2.95;1.60;;;;;;;26.50;30.54;93088.34;2058327;69;20594;-74
2021/09/25 09:46:12;;;;;;;1.75;1.60;;;;;;;27.73;28.09;93090.47;2058319;69;20149;-76
2021/09/25 09:48:38;;;;;;;4.78;1.48;;;;;;;27.36;29.34;93080.91;2058407;69;20154;-77
2021/09/25 09:51:04;;;;;;;3.97;1.70;;;;;;;26.82;28.30;93073.41;2057711;69;20152;-74
2021/09/25 09:53:40;;;;;;;5.22;1.50;;;;;;;26.07;29.22;93074.28;2058217;69;20239;-77
2021/09/25 09:56:23;;;;;;;1.50;1.40;;;;;;;26.62;29.73;93065.34;2058288;69;20178;-75
2021/09/25 09:59:00;;;;;;;3.35;1.55;;;;;;;26.30;27.43;93060.03;2058267;69;20165;-75
2021/09/25 10:01:26;;;;;;;5.35;1.60;;;;;;;26.82;27.34;93058.97;2058247;69;20541;-75
2021/09/25 10:03:52;;;;;;;3.17;1.60;;;;;;;27.08;26.56;93055.47;2058367;69;20161;-76
2021/09/25 10:06:18;;;;;;;1.77;1.60;;;;;;;27.11;28.59;93054.06;2058270;69;20525;-76
2021/09/25 10:08:44;;;;;;;1.70;1.50;;;;;;;28.02;26.97;93056.50;2058209;69;20149;-75
2021/09/25 10:11:10;;;;;;;1.90;1.40;;;;;;;28.20;25.64;93060.88;2058360;69;20161;-76
2021/09/25 10:13:39;;;;;;;2.15;1.48;;;;;;;28.35;26.50;93059.44;2058367;69;20145;-75
2021/09/25 10:16:07;;;;;;;1.58;1.30;;;;;;;28.98;26.19;93058.66;2058216;69;20207;-76
2021/09/25 10:18:34;;;;;;;2.05;1.50;;;;;;;29.41;25.92;93053.41;2058207;69;20307;-74
2021/09/25 10:21:00;;;;;;;4.43;1.42;;;;;;;29.83;25.11;93049.63;2057894;69;20182;-76
2021/09/25 10:23:26;;;;;;;2.25;1.33;;;;;;;29.88;24.12;93038.72;2058152;69;20145;-74
2021/09/25 10:25:52;;;;;;;1.90;1.50;;;;;;;30.50;23.73;93036.78;2058247;69;20188;-75
2021/09/25 10:28:28;;;;;;;1.60;1.50;;;;;;;30.34;23.53;93034.06;2058327;69;20189;-76
2021/09/25 10:30:55;;;;;;;1.40;1.30;;;;;;;30.84;24.06;93035.78;2058231;69;20145;-78
2021/09/25 10:33:23;;;;;;;2.10;1.50;;;;;;;31.29;23.42;93031.66;2058215;69;20149;-76
2021/09/25 10:35:51;;;;;;;2.42;1.30;;;;;;;31.62;23.82;93037.81;2058349;69;20574;-76
2021/09/25 10:38:38;;;;;;;2.08;1.30;;;;;;;30.79;23.45;93030.72;2058102;69;20161;-76
2021/09/25 10:41:18;;;;;;;1.80;1.48;;;;;;;31.83;23.51;93033.16;2058349;69;20585;-76
2021/09/25 10:43:47;;;;;;;1.63;1.30;;;;;;;31.96;21.81;93018.44;2057669;69;20142;-77
2021/09/25 10:46:15;;;;;;;1.65;1.25;;;;;;;33.36;22.73;93024.81;2058161;69;20169;-78
2021/09/25 10:48:46;;;;;;;1.35;1.25;;;;;;;33.20;22.11;93015.66;2057105;69;20249;-76
2021/09/25 10:51:15;;;;;;;1.35;1.25;;;;;;;33.60;20.33;93011.22;2057266;69;20248;-77
2021/09/25 10:53:43;;;;;;;1.98;1.15;;;;;;;33.98;19.98;93012.56;2057169;69;20233;-76
2021/09/25 10:56:26;;;;;;;2.35;1.17;;;;;;;35.12;19.72;93003.22;2057856;69;20150;-77
2021/09/25 10:59:00;;;;;;;1.80;1.30;;;;;;;35.74;19.13;93008.78;2058039;69;20145;-77
2021/09/25 11:01:43;;;;;;;1.20;1.10;;;;;;;36.58;17.07;93000.34;2058496;69;20150;-79
2021/09/25 11:04:10;;;;;;;4.97;1.00;;;;;;;37.14;17.37;93002.88;2058453;69;20164;-77
2021/09/25 11:06:40;;;;;;;1.10;1.00;;;;;;;37.86;16.58;93010.56;2058363;69;20149;-75
2021/09/25 11:09:14;;;;;;;1.77;0.93;;;;;;;38.83;15.84;93005.25;2058482;69;20176;-78
2021/09/25 11:11:57;;;;;;;0.93;0.90;;;;;;;40.30;15.68;93013.50;2058512;69;20160;-79
2021/09/25 11:14:43;;;;;;;1.33;1.10;;;;;;;39.43;14.78;93002.75;2057739;69;20163;-77
2021/09/25 11:17:12;;;;;;;0.90;0.90;;;;;;;40.43;14.85;92998.88;2057761;69;20141;-76
2021/09/25 11:19:45;;;;;;;1.00;0.90;;;;;;;40.20;14.27;92992.66;2058283;69;20628;-78
2021/09/25 11:22:16;;;;;;;1.85;1.05;;;;;;;40.06;14.06;92982.22;2056878;69;20141;-75
2021/09/25 11:25:05;;;;;;;0.90;0.90;;;;;;;39.89;13.44;92988.16;2058438;69;20149;-76
2021/09/25 11:27:34;;;;;;;0.93;0.90;;;;;;;42.12;12.92;92986.56;2058429;69;20201;-77
2021/09/25 11:29:59;;;;;;;1.00;0.80;;;;;;;42.70;12.46;92981.84;2058454;69;20142;-79
2021/09/25 11:32:34;;;;;;;1.05;1.00;;;;;;;43.65;12.09;92968.84;2058347;69;20195;-79
2021/09/25 11:35:01;;;;;;;1.20;0.80;;;;;;;43.06;12.72;92970.16;2058401;69;20145;-75